createdAt,value
2022-12-28T00:00:44.903Z,74.67
2022-12-28T00:03:24.609Z,82.93
2022-12-28T00:06:03.220Z,78.27
2022-12-28T00:08:37.223Z,74.53
2022-12-28T00:11:20.379Z,83.50
2022-12-28T00:14:03.710Z,82.73
2022-12-28T00:16:39.150Z,83.00
2022-12-28T00:19:18.040Z,80.27
2022-12-28T00:21:52.489Z,76.43
2022-12-28T00:24:28.215Z,77.93
2022-12-28T00:27:02.255Z,81.37
2022-12-28T00:29:36.213Z,82.03
2022-12-28T00:32:10.132Z,75.67
2022-12-28T00:34:45.687Z,80.03
2022-12-28T00:37:19.485Z,78.23
2022-12-28T00:39:53.289Z,81.40
2022-12-28T00:42:27.217Z,77.90
2022-12-28T00:45:01.087Z,79.57
2022-12-28T00:47:35.088Z,81.83
2022-12-28T00:50:11.544Z,77.70
2022-12-28T00:52:45.476Z,81.53
2022-12-28T00:55:19.563Z,73.83
2022-12-28T00:57:53.558Z,77.50
2022-12-28T01:00:27.445Z,78.57
2022-12-28T01:03:01.615Z,82.67
2022-12-28T01:05:37.523Z,74.03
2022-12-28T01:08:14.513Z,70.03
2022-12-28T01:10:48.631Z,68.30
2022-12-28T01:13:22.940Z,76.53
2022-12-28T01:15:56.837Z,89.10
2022-12-28T01:18:30.683Z,72.80
2022-12-28T01:21:14.267Z,86.47
2022-12-28T01:23:49.709Z,72.03
2022-12-28T01:26:23.910Z,75.07
2022-12-28T01:28:59.809Z,83.53
2022-12-28T01:31:33.780Z,83.37
2022-12-28T01:34:08.011Z,78.57
2022-12-28T01:36:43.815Z,80.77
2022-12-28T01:39:17.724Z,71.53
2022-12-28T01:41:51.958Z,77.40
2022-12-28T01:44:48.306Z,78.27
2022-12-28T01:47:26.277Z,74.97
2022-12-28T01:50:06.281Z,84.63
2022-12-28T01:52:46.100Z,82.40
2022-12-28T01:55:23.469Z,84.97
2022-12-28T01:58:02.408Z,82.20
2022-12-28T02:00:36.563Z,84.80
2022-12-28T02:03:14.483Z,85.83
2022-12-28T02:05:56.143Z,89.30
2022-12-28T02:08:37.176Z,89.57
2022-12-28T02:11:11.675Z,84.23
2022-12-28T02:13:47.390Z,79.00
2022-12-28T02:16:21.261Z,92.20
2022-12-28T02:18:56.155Z,82.03
2022-12-28T02:21:38.956Z,88.30
2022-12-28T02:25:11.380Z,83.57
2022-12-28T02:27:56.578Z,91.87
2022-12-28T02:30:34.471Z,92.90
2022-12-28T02:33:22.830Z,99.47
2022-12-28T02:36:03.901Z,94.37
2022-12-28T02:38:42.195Z,89.80
2022-12-28T02:41:19.913Z,99.27
2022-12-28T02:43:54.205Z,92.67
2022-12-28T02:46:48.673Z,103.97
2022-12-28T02:50:17.281Z,98.30
2022-12-28T02:53:22.944Z,98.83
2022-12-28T02:56:12.775Z,94.63
2022-12-28T02:59:23.935Z,101.00
2022-12-28T03:02:31.401Z,100.43
2022-12-28T03:05:17.372Z,94.17
2022-12-28T03:08:15.321Z,106.67
2022-12-28T03:10:55.968Z,103.70
2022-12-28T03:13:49.320Z,99.23
2022-12-28T03:16:29.852Z,102.43
2022-12-28T03:19:25.905Z,104.30
2022-12-28T03:22:20.721Z,113.47
2022-12-28T03:25:11.322Z,108.10
2022-12-28T03:28:02.592Z,104.23
2022-12-28T03:30:56.922Z,109.30
2022-12-28T03:33:32.237Z,107.50
2022-12-28T03:36:13.488Z,114.93
2022-12-28T03:39:06.663Z,112.40
2022-12-28T03:41:43.291Z,110.17
2022-12-28T03:44:35.216Z,107.70
2022-12-28T03:47:13.775Z,108.27
2022-12-28T03:49:48.067Z,107.10
2022-12-28T03:52:24.179Z,110.53
2022-12-28T03:54:58.399Z,103.87
2022-12-28T03:57:32.929Z,107.40
2022-12-28T04:00:12.409Z,100.83
2022-12-28T04:02:59.168Z,100.50
2022-12-28T04:05:36.570Z,101.67
2022-12-28T04:08:15.829Z,97.00
2022-12-28T04:10:52.740Z,101.23
2022-12-28T04:13:29.384Z,97.63
2022-12-28T04:16:18.002Z,98.03
2022-12-28T04:18:55.112Z,95.63
2022-12-28T04:21:32.228Z,98.63
2022-12-28T04:24:11.835Z,103.53
2022-12-28T04:26:49.466Z,100.00
2022-12-28T04:29:26.098Z,95.53
2022-12-28T04:32:18.091Z,98.20
2022-12-28T04:34:55.229Z,109.00
2022-12-28T04:37:31.722Z,100.23
2022-12-28T04:40:12.135Z,99.03
2022-12-28T04:42:48.998Z,93.73
2022-12-28T04:45:25.434Z,103.07
2022-12-28T04:48:06.022Z,86.93
2022-12-28T04:50:43.727Z,83.70
2022-12-28T04:53:20.133Z,85.17
2022-12-28T04:56:01.273Z,82.50
2022-12-28T04:58:38.082Z,85.53
2022-12-28T05:01:15.976Z,81.33
2022-12-28T05:03:55.692Z,92.70
2022-12-28T05:06:31.856Z,85.07
2022-12-28T05:09:06.231Z,82.97
2022-12-28T05:11:42.264Z,83.03
2022-12-28T05:14:16.328Z,88.03
2022-12-28T05:16:50.152Z,93.83
2022-12-28T05:19:24.338Z,87.20
2022-12-28T05:21:58.488Z,98.43
2022-12-28T05:24:32.622Z,99.77
2022-12-28T05:27:09.158Z,93.77
2022-12-28T05:29:43.443Z,92.50
2022-12-28T05:32:17.509Z,88.57
2022-12-28T05:34:52.321Z,91.73
2022-12-28T05:37:26.484Z,88.47
2022-12-28T05:40:00.745Z,86.10
2022-12-28T05:42:36.780Z,80.13
2022-12-28T05:45:11.739Z,90.33
2022-12-28T05:47:45.741Z,79.27
2022-12-28T05:50:20.731Z,79.20
2022-12-28T05:52:54.717Z,87.67
2022-12-28T05:55:28.962Z,83.10
2022-12-28T05:58:04.619Z,93.27
2022-12-28T06:00:38.362Z,85.60
2022-12-28T06:03:12.403Z,83.90
2022-12-28T06:05:47.775Z,83.90
2022-12-28T06:08:22.861Z,73.07
2022-12-28T06:10:57.479Z,76.63
2022-12-28T06:13:34.092Z,73.50
2022-12-28T06:16:13.865Z,74.97
2022-12-28T06:18:48.628Z,74.10
2022-12-28T06:21:24.541Z,74.67
2022-12-28T06:24:01.745Z,79.90
2022-12-28T06:26:39.156Z,75.27
2022-12-28T06:29:15.581Z,71.33
2022-12-28T06:31:52.874Z,64.20
2022-12-28T06:34:27.318Z,65.47
2022-12-28T06:37:01.674Z,60.73
2022-12-28T06:39:36.201Z,72.10
2022-12-28T06:42:12.443Z,70.03
2022-12-28T06:44:49.761Z,62.80
2022-12-28T06:47:24.502Z,65.93
2022-12-28T06:49:58.917Z,65.33
2022-12-28T06:52:33.090Z,68.67
2022-12-28T06:55:07.154Z,67.13
2022-12-28T06:57:42.013Z,65.40
2022-12-28T07:00:21.020Z,64.90
2022-12-28T07:03:03.485Z,67.57
2022-12-28T07:05:43.438Z,64.80
2022-12-28T07:08:18.067Z,58.30
2022-12-28T07:10:52.604Z,69.67
2022-12-28T07:13:28.435Z,64.53
2022-12-28T07:16:09.754Z,62.30
2022-12-28T07:18:45.804Z,64.77
2022-12-28T07:21:22.740Z,60.57
2022-12-28T07:23:59.238Z,60.33
2022-12-28T07:26:37.334Z,67.63
2022-12-28T07:29:12.393Z,65.30
2022-12-28T07:31:49.013Z,60.07
2022-12-28T07:34:24.363Z,62.13
2022-12-28T07:36:59.761Z,63.17
2022-12-28T07:39:34.933Z,55.43
2022-12-28T07:42:12.431Z,63.07
2022-12-28T07:44:49.324Z,61.03
2022-12-28T07:47:26.592Z,59.30
2022-12-28T07:50:01.542Z,59.63
2022-12-28T07:52:36.226Z,72.07
2022-12-28T07:55:10.733Z,60.40
2022-12-28T07:57:45.096Z,53.57
2022-12-28T08:00:20.153Z,64.27
2022-12-28T08:03:00.333Z,55.80
2022-12-28T08:05:35.336Z,53.97
2022-12-28T08:08:09.774Z,58.93
2022-12-28T08:10:44.413Z,58.20
2022-12-28T08:13:18.952Z,56.87
2022-12-28T08:15:59.581Z,60.23
2022-12-28T08:18:36.326Z,56.63
2022-12-28T08:21:15.292Z,55.50
2022-12-28T08:23:51.287Z,59.57
2022-12-28T08:26:27.107Z,57.33
2022-12-28T08:29:03.721Z,58.53
2022-12-28T08:31:47.641Z,57.20
2022-12-28T08:34:28.486Z,63.30
2022-12-28T08:37:03.116Z,70.10
2022-12-28T08:39:37.584Z,66.57
2022-12-28T08:42:12.527Z,67.60
2022-12-28T08:44:46.996Z,64.93
2022-12-28T08:47:21.455Z,63.60
2022-12-28T08:49:58.082Z,62.13
2022-12-28T08:52:32.386Z,57.93
2022-12-28T08:55:06.466Z,67.10
2022-12-28T08:57:44.327Z,57.17
2022-12-28T09:00:20.299Z,57.33
2022-12-28T09:02:54.728Z,57.13
2022-12-28T09:05:37.474Z,59.13
2022-12-28T09:08:14.374Z,79.67
2022-12-28T09:10:48.740Z,70.87
2022-12-28T09:13:22.965Z,71.53
2022-12-28T09:16:02.408Z,63.37
2022-12-28T09:18:37.071Z,68.03
2022-12-28T09:21:15.505Z,76.77
2022-12-28T09:23:50.977Z,81.90
2022-12-28T09:26:26.526Z,75.20
2022-12-28T09:29:01.899Z,73.33
2022-12-28T09:31:38.644Z,74.40
2022-12-28T09:37:10.673Z,68.57
2022-12-28T09:39:44.599Z,73.63
2022-12-28T09:42:25.994Z,72.87
2022-12-28T09:45:09.430Z,78.27
2022-12-28T09:47:50.689Z,79.27
2022-12-28T09:50:36.888Z,73.13
2022-12-28T09:53:37.950Z,74.33
2022-12-28T09:56:27.709Z,78.20
2022-12-28T09:59:03.011Z,64.57
2022-12-28T10:01:39.836Z,67.70
2022-12-28T10:04:17.097Z,76.40
2022-12-28T10:06:51.485Z,71.67
2022-12-28T10:09:32.094Z,70.53
2022-12-28T10:12:18.201Z,69.70
2022-12-28T10:14:52.840Z,65.37
2022-12-28T10:17:32.113Z,60.23
2022-12-28T10:20:07.748Z,66.17
2022-12-28T10:22:50.034Z,61.83
2022-12-28T10:25:29.289Z,65.30
2022-12-28T10:28:06.028Z,60.80
2022-12-28T10:30:51.335Z,61.63
2022-12-28T10:33:27.205Z,52.53
2022-12-28T10:36:01.816Z,59.80
2022-12-28T10:38:38.371Z,46.43
2022-12-28T10:41:19.743Z,54.60
2022-12-28T10:47:06.164Z,51.57
2022-12-28T10:49:46.871Z,50.53
2022-12-28T10:52:25.849Z,55.07
2022-12-28T10:55:08.074Z,48.60
2022-12-28T10:58:27.037Z,58.30
2022-12-28T11:00:40.799Z,52.67
2022-12-28T11:03:20.908Z,48.17
2022-12-28T11:03:24.115Z,51.07
2022-12-28T11:06:26.721Z,54.77
2022-12-28T11:09:17.638Z,51.00
2022-12-28T11:11:54.656Z,53.57
2022-12-28T11:14:38.926Z,51.40
2022-12-28T11:17:22.786Z,54.33
2022-12-28T11:20:00.523Z,54.43
2022-12-28T11:22:37.020Z,47.50
2022-12-28T11:25:15.444Z,56.13
2022-12-28T11:27:52.355Z,54.73
2022-12-28T11:30:30.994Z,60.80
2022-12-28T11:33:11.969Z,57.50
2022-12-28T11:35:51.167Z,58.73
2022-12-28T11:38:44.861Z,55.53
2022-12-28T11:42:10.350Z,54.57
2022-12-28T11:44:58.045Z,57.43
2022-12-28T11:47:38.321Z,49.77
2022-12-28T11:50:47.155Z,53.70
2022-12-28T11:53:53.141Z,53.37
2022-12-28T11:56:30.744Z,53.60
2022-12-28T11:59:26.590Z,50.93
2022-12-28T12:02:06.749Z,55.27
2022-12-28T12:04:51.486Z,51.63
2022-12-28T12:07:32.467Z,49.10
2022-12-28T12:10:38.648Z,57.33
2022-12-28T12:13:44.659Z,54.40
2022-12-28T12:16:30.770Z,54.17
2022-12-28T12:19:14.902Z,56.60
2022-12-28T12:22:04.087Z,51.20
2022-12-28T12:24:48.768Z,52.70
2022-12-28T12:27:37.291Z,49.47
2022-12-28T12:30:19.968Z,47.63
2022-12-28T12:33:00.059Z,52.33
2022-12-28T12:35:39.906Z,49.90
2022-12-28T12:38:28.236Z,47.00
2022-12-28T12:41:22.413Z,53.97
2022-12-28T12:44:17.604Z,53.00
2022-12-28T12:47:25.355Z,52.00
2022-12-28T12:50:33.742Z,50.13
2022-12-28T12:53:22.746Z,48.87
2022-12-28T12:56:06.550Z,51.97
2022-12-28T12:58:54.274Z,48.67
2022-12-28T13:01:40.296Z,46.93
2022-12-28T13:04:23.594Z,51.53
2022-12-28T13:07:08.165Z,45.03
2022-12-28T13:09:47.889Z,53.00
2022-12-28T13:12:25.191Z,44.83
2022-12-28T13:15:12.327Z,45.10
2022-12-28T13:18:42.901Z,47.87
2022-12-28T13:21:07.321Z,49.00
2022-12-28T13:23:50.787Z,42.40
2022-12-28T13:26:35.526Z,42.30
2022-12-28T13:29:20.370Z,48.47
2022-12-28T13:31:57.317Z,47.50
2022-12-28T13:34:35.578Z,49.07
2022-12-28T13:37:21.910Z,44.03
2022-12-28T13:40:13.362Z,53.07
2022-12-28T13:43:00.986Z,49.83
2022-12-28T13:45:38.476Z,48.77
2022-12-28T13:48:15.007Z,50.17
2022-12-28T13:50:51.650Z,48.90
2022-12-28T13:53:31.761Z,50.50
2022-12-28T13:56:10.974Z,55.80
2022-12-28T13:58:53.587Z,44.27
2022-12-28T14:01:33.729Z,45.83
2022-12-28T14:04:51.345Z,51.33
2022-12-28T14:07:16.703Z,47.30
2022-12-28T14:09:53.786Z,55.27
2022-12-28T14:12:30.092Z,51.57
2022-12-28T14:15:09.127Z,53.90
2022-12-28T14:17:46.796Z,49.03
2022-12-28T14:20:22.756Z,54.13
2022-12-28T14:22:59.011Z,58.07
2022-12-28T14:25:47.151Z,53.53
2022-12-28T14:28:28.060Z,51.10
2022-12-28T14:31:07.271Z,50.43
2022-12-28T14:33:54.062Z,50.00
2022-12-28T14:36:34.739Z,52.43
2022-12-28T14:39:11.706Z,58.20
2022-12-28T14:41:51.392Z,53.77
2022-12-28T14:44:32.834Z,54.97
2022-12-28T14:47:42.060Z,55.23
2022-12-28T14:50:24.356Z,52.60
2022-12-28T14:53:13.144Z,60.63
2022-12-28T14:55:59.423Z,55.03
2022-12-28T14:58:47.874Z,51.67
2022-12-28T15:01:29.037Z,54.43
2022-12-28T15:04:10.617Z,52.60
2022-12-28T15:06:46.432Z,58.33
2022-12-28T15:09:22.412Z,54.73
2022-12-28T15:12:15.986Z,61.70
2022-12-28T15:14:54.685Z,58.77
2022-12-28T15:17:33.665Z,59.37
2022-12-28T15:20:14.440Z,55.30
2022-12-28T15:22:53.256Z,54.70
2022-12-28T15:25:32.096Z,51.63
2022-12-28T15:28:10.728Z,61.00
2022-12-28T15:30:50.776Z,53.93
2022-12-28T15:33:31.093Z,59.30
2022-12-28T15:36:17.724Z,56.93
2022-12-28T15:38:54.699Z,65.70
2022-12-28T15:41:45.981Z,67.10
2022-12-28T15:44:23.820Z,60.87
2022-12-28T15:46:59.177Z,58.77
2022-12-28T15:49:34.695Z,61.77
2022-12-28T15:52:12.804Z,62.13
2022-12-28T15:54:49.622Z,64.07
2022-12-28T15:57:26.376Z,62.53
2022-12-28T16:00:01.608Z,66.77
2022-12-28T16:02:39.331Z,60.10
2022-12-28T16:05:15.049Z,59.83
2022-12-28T16:07:52.229Z,68.13
2022-12-28T16:10:27.754Z,65.33
2022-12-28T16:13:02.845Z,66.10
2022-12-28T16:15:38.263Z,63.40
2022-12-28T16:18:14.603Z,61.20
2022-12-28T16:20:49.644Z,61.87
2022-12-28T16:23:26.823Z,64.50
2022-12-28T16:26:01.495Z,67.33
2022-12-28T16:28:37.302Z,63.33
2022-12-28T16:31:23.909Z,65.83
2022-12-28T16:34:02.832Z,71.10
2022-12-28T16:36:37.843Z,62.27
2022-12-28T16:39:17.521Z,65.83
2022-12-28T16:41:51.864Z,66.27
2022-12-28T16:44:26.957Z,65.60
2022-12-28T16:47:02.047Z,72.40
2022-12-28T16:49:36.276Z,63.93
2022-12-28T16:52:10.165Z,68.57
2022-12-28T16:54:45.738Z,71.37
2022-12-28T16:57:19.831Z,71.00
2022-12-28T16:59:54.119Z,67.27
2022-12-28T17:02:28.629Z,67.33
2022-12-28T17:05:02.709Z,69.80
2022-12-28T17:07:36.506Z,71.50
2022-12-28T17:10:13.196Z,63.93
2022-12-28T17:12:47.421Z,66.90
2022-12-28T17:15:21.796Z,71.27
2022-12-28T17:17:56.151Z,70.97
2022-12-28T17:20:30.808Z,67.50
2022-12-28T17:23:04.710Z,67.60
2022-12-28T17:25:41.350Z,66.30
2022-12-28T17:28:15.598Z,73.93
2022-12-28T17:30:51.736Z,71.33
2022-12-28T17:33:25.760Z,71.00
2022-12-28T17:36:01.184Z,68.20
2022-12-28T17:38:37.437Z,64.83
2022-12-28T17:41:18.009Z,69.43
2022-12-28T17:43:53.500Z,72.53
2022-12-28T17:46:28.683Z,73.00
2022-12-28T17:49:03.680Z,70.67
2022-12-28T17:51:38.969Z,75.70
2022-12-28T17:54:14.955Z,73.50
2022-12-28T17:56:50.766Z,81.80
2022-12-28T17:59:24.797Z,76.43
2022-12-28T18:01:59.050Z,77.53
2022-12-28T18:04:33.297Z,81.53
2022-12-28T18:07:07.562Z,76.30
2022-12-28T18:09:41.577Z,76.20
2022-12-28T18:12:18.289Z,73.10
2022-12-28T18:14:52.236Z,74.63
2022-12-28T18:17:26.437Z,77.23
2022-12-28T18:20:00.698Z,72.17
2022-12-28T18:22:35.224Z,79.63
2022-12-28T18:25:09.516Z,79.90
2022-12-28T18:27:45.174Z,77.80
2022-12-28T18:30:21.080Z,75.90
2022-12-28T18:32:54.937Z,75.33
2022-12-28T18:35:29.617Z,72.43
2022-12-28T18:38:03.478Z,72.10
2022-12-28T18:40:39.251Z,73.33
2022-12-28T18:43:14.895Z,73.43
2022-12-28T18:45:54.683Z,77.53
2022-12-28T18:48:28.902Z,82.77
2022-12-28T18:51:03.986Z,75.50
2022-12-28T18:53:38.083Z,76.13
2022-12-28T18:56:13.754Z,86.50
2022-12-28T18:58:53.756Z,82.07
2022-12-28T19:04:24.337Z,83.23
2022-12-28T19:06:58.660Z,83.30
2022-12-28T19:09:32.567Z,86.47
2022-12-28T19:12:06.650Z,81.03
2022-12-28T19:14:42.510Z,85.03
2022-12-28T19:17:16.641Z,82.20
2022-12-28T19:19:51.403Z,81.93
2022-12-28T19:22:25.118Z,91.17
2022-12-28T19:24:58.988Z,86.17
2022-12-28T19:27:33.121Z,83.83
2022-12-28T19:30:09.305Z,92.37
2022-12-28T19:32:43.496Z,86.73
2022-12-28T19:35:17.348Z,88.40
2022-12-28T19:37:51.097Z,86.23
2022-12-28T19:40:25.116Z,87.87
2022-12-28T19:42:58.959Z,87.20
2022-12-28T19:45:34.777Z,83.50
2022-12-28T19:48:08.890Z,83.63
2022-12-28T19:50:43.745Z,91.40
2022-12-28T19:53:17.807Z,80.40
2022-12-28T19:55:51.845Z,82.83
2022-12-28T19:58:27.019Z,97.53
2022-12-28T20:01:08.880Z,87.77
2022-12-28T20:03:43.365Z,82.77
2022-12-28T20:06:19.645Z,87.43
2022-12-28T20:08:54.505Z,91.43
2022-12-28T20:11:28.998Z,92.83
2022-12-28T20:14:04.092Z,85.30
2022-12-28T20:16:40.568Z,87.93
2022-12-28T20:19:16.160Z,89.47
2022-12-28T20:21:51.305Z,95.57
2022-12-28T20:24:27.520Z,91.53
2022-12-28T20:27:02.005Z,90.07
2022-12-28T20:29:36.235Z,96.77
2022-12-28T20:32:12.321Z,95.87
2022-12-28T20:34:46.314Z,91.53
2022-12-28T20:37:20.516Z,88.80
2022-12-28T20:39:54.604Z,88.27
2022-12-28T20:42:44.437Z,96.57
2022-12-28T20:45:19.820Z,89.50
2022-12-28T20:47:56.691Z,93.27
2022-12-28T20:50:33.897Z,95.10
2022-12-28T20:53:08.162Z,96.30
2022-12-28T20:55:42.389Z,95.83
2022-12-28T20:58:16.211Z,93.43
2022-12-28T21:00:50.003Z,99.27
2022-12-28T21:03:25.601Z,97.07
2022-12-28T21:05:59.261Z,97.50
2022-12-28T21:08:33.772Z,91.17
2022-12-28T21:11:08.125Z,93.70
2022-12-28T21:13:44.456Z,100.03
2022-12-28T21:16:19.883Z,100.63
2022-12-28T21:18:55.826Z,96.07
2022-12-28T21:21:29.642Z,90.63
2022-12-28T21:24:05.765Z,92.07
2022-12-28T21:26:39.534Z,87.77
2022-12-28T21:29:13.679Z,92.63
2022-12-28T21:31:47.740Z,92.90
2022-12-28T21:34:23.883Z,89.70
2022-12-28T21:36:58.719Z,99.17
2022-12-28T21:39:32.825Z,90.20
2022-12-28T21:42:07.025Z,90.93
2022-12-28T21:44:41.636Z,94.93
2022-12-28T21:47:15.672Z,94.53
2022-12-28T21:49:51.539Z,96.00
2022-12-28T21:52:25.593Z,90.10
2022-12-28T21:54:59.566Z,94.90
2022-12-28T21:57:33.330Z,97.07
2022-12-28T22:00:27.546Z,94.40
2022-12-28T22:03:17.734Z,96.07
2022-12-28T22:06:09.099Z,94.43
2022-12-28T22:08:59.123Z,86.10
2022-12-28T22:11:49.295Z,93.47
2022-12-28T22:14:23.495Z,91.37
2022-12-28T22:16:57.268Z,92.93
2022-12-28T22:19:31.231Z,89.07
2022-12-28T22:22:07.125Z,104.03
2022-12-28T22:24:41.136Z,90.93
2022-12-28T22:27:15.170Z,101.17
2022-12-28T22:29:49.279Z,94.50
2022-12-28T22:32:23.256Z,93.70
2022-12-28T22:34:57.234Z,93.03
2022-12-28T22:37:33.581Z,99.43
2022-12-28T22:40:08.463Z,95.13
2022-12-28T22:42:45.877Z,96.07
2022-12-28T22:45:21.917Z,91.47
2022-12-28T22:48:00.948Z,95.23
2022-12-28T22:50:41.305Z,96.97
2022-12-28T22:53:18.992Z,96.20
2022-12-28T22:56:02.005Z,92.73
2022-12-28T22:58:36.207Z,92.53
2022-12-28T23:01:12.118Z,96.30
2022-12-28T23:03:47.196Z,97.77
2022-12-28T23:06:23.858Z,101.37
2022-12-28T23:08:59.999Z,95.73
2022-12-28T23:11:43.199Z,100.63
2022-12-28T23:14:38.394Z,98.90
2022-12-28T23:17:16.426Z,105.37
2022-12-28T23:20:06.853Z,95.87
2022-12-28T23:22:56.920Z,97.70
2022-12-28T23:25:48.717Z,97.90
2022-12-28T23:28:22.639Z,93.80
2022-12-28T23:30:57.813Z,99.70
2022-12-28T23:33:32.076Z,96.37
2022-12-28T23:36:07.983Z,95.07
2022-12-28T23:38:41.964Z,92.27
2022-12-28T23:41:33.532Z,96.70
2022-12-28T23:44:07.474Z,106.57
2022-12-28T23:46:41.616Z,99.17
2022-12-28T23:49:15.619Z,98.63
2022-12-28T23:51:50.626Z,100.37
2022-12-28T23:54:25.035Z,104.20
2022-12-28T23:57:00.939Z,98.37
2022-12-28T23:59:34.992Z,96.43
